Time;durP1;ratioP1;P1;durP2;ratioP2;P2;SDS_P1;SDS_P2;PMS_P1;PMS_P2;Temp;Humidity;BMP_temperature;BMP_pressure;BME280_temperature;BME280_humidity;BME280_pressure;Samples;Min_cycle;Max_cycle;Signal;HPM_P1;HPM_P2
2021/07/30 00:00:07;;;;;;;;;;;;;;;16.61;49.48;100341.55;1614887;87;20422;-75
2021/07/30 00:02:33;;;;;;;;;;;;;;;16.61;49.53;100345.47;1607961;87;20092;-75
2021/07/30 00:04:59;;;;;;;;;;;;;;;16.59;49.59;100340.78;1614530;87;20219;-75
2021/07/30 00:07:26;;;;;;;;;;;;;;;16.59;49.74;100336.02;1613727;87;20239;-75
2021/07/30 00:09:53;;;;;;;;;;;;;;;16.56;49.79;100338.30;1607714;87;20201;-75
2021/07/30 00:12:19;;;;;;;;;;;;;;;16.55;49.88;100338.77;1607083;87;20141;-75
2021/07/30 00:14:45;;;;;;;;;;;;;;;16.52;49.96;100338.90;1607388;87;20281;-75
2021/07/30 00:17:12;;;;;;;;;;;;;;;16.44;50.02;100338.85;1607868;87;20205;-75
2021/07/30 00:19:37;;;;;;;;;;;;;;;16.41;50.12;100338.98;1607332;87;20232;-75
2021/07/30 00:22:04;;;;;;;;;;;;;;;16.40;50.17;100340.75;1590576;85;1199569;-75
2021/07/30 00:24:30;;;;;;;;;;;;;;;16.42;50.21;100332.85;1603349;89;20220;-75
2021/07/30 00:26:56;;;;;;;;;;;;;;;16.38;50.22;100337.36;1606610;88;20206;-75
2021/07/30 00:29:22;;;;;;;;;;;;;;;16.30;50.39;100342.06;1606394;88;20187;-75
2021/07/30 00:31:48;;;;;;;;;;;;;;;16.19;50.23;100339.08;1606744;89;20200;-75
2021/07/30 00:34:14;;;;;;;;;;;;;;;16.10;50.34;100348.64;1606999;88;20190;-75
2021/07/30 00:36:41;;;;;;;;;;;;;;;16.05;50.70;100354.05;1606207;88;20271;-75
2021/07/30 00:39:07;;;;;;;;;;;;;;;16.07;50.78;100351.38;1602871;89;20262;-75
2021/07/30 00:41:39;;;;;;;;;;;;;;;16.09;50.82;100344.33;1605963;88;20191;-75
2021/07/30 00:44:02;;;;;;;;;;;;;;;16.10;50.91;100342.96;1605579;87;20198;-75
2021/07/30 00:46:28;;;;;;;;;;;;;;;16.12;50.90;100342.86;1608435;88;20554;-75
2021/07/30 00:48:55;;;;;;;;;;;;;;;16.10;50.93;100345.56;1608797;87;20149;-75
2021/07/30 00:51:22;;;;;;;;;;;;;;;16.11;51.00;100351.17;1609016;89;20175;-75
2021/07/30 00:53:50;;;;;;;;;;;;;;;16.14;51.08;100344.95;1608552;88;20136;-75
2021/07/30 00:56:17;;;;;;;;;;;;;;;16.15;51.16;100341.42;1609230;88;20104;-75
2021/07/30 00:58:43;;;;;;;;;;;;;;;16.15;51.26;100353.17;1607962;88;20163;-77
2021/07/30 01:01:09;;;;;;;;;;;;;;;16.12;51.30;100355.45;1608928;88;20112;-76
2021/07/30 01:03:35;;;;;;;;;;;;;;;16.11;51.33;100355.55;1602499;88;20133;-76
2021/07/30 01:06:01;;;;;;;;;;;;;;;16.10;51.43;100359.91;1599175;88;20200;-76
2021/07/30 01:08:27;;;;;;;;;;;;;;;16.11;51.49;100359.46;1599180;88;20299;-76
2021/07/30 01:10:53;;;;;;;;;;;;;;;16.11;51.54;100360.30;1599167;89;20501;-76
2021/07/30 01:13:20;;;;;;;;;;;;;;;16.12;51.59;100358.06;1588801;88;20133;-76
2021/07/30 01:15:46;;;;;;;;;;;;;;;16.13;51.67;100360.21;1586901;90;20167;-76
2021/07/30 01:18:15;;;;;;;;;;;;;;;16.13;51.81;100358.45;1585020;89;20141;-76
2021/07/30 01:20:43;;;;;;;;;;;;;;;16.14;51.83;100359.30;1591379;90;20167;-76
2021/07/30 01:23:11;;;;;;;;;;;;;;;16.15;51.85;100362.30;1552188;91;20133;-76
2021/07/30 01:25:37;;;;;;;;;;;;;;;16.16;51.94;100352.25;1580400;90;20143;-76
2021/07/30 01:28:04;;;;;;;;;;;;;;;16.16;52.03;100356.17;1583862;90;20123;-76
2021/07/30 01:30:30;;;;;;;;;;;;;;;16.18;52.08;100356.48;1583014;89;20213;-76
2021/07/30 01:32:56;;;;;;;;;;;;;;;16.21;52.18;100360.73;1581554;90;20233;-76
2021/07/30 01:35:22;;;;;;;;;;;;;;;16.23;52.18;100360.20;1573264;90;20471;-76
2021/07/30 01:37:50;;;;;;;;;;;;;;;16.25;52.25;100365.36;1578855;90;20261;-76
2021/07/30 01:40:21;;;;;;;;;;;;;;;16.27;52.28;100354.40;1584883;90;21076;-76
2021/07/30 01:42:44;;;;;;;;;;;;;;;16.28;52.27;100356.94;1580252;90;20253;-76
2021/07/30 01:45:11;;;;;;;;;;;;;;;16.31;52.38;100367.70;1594014;90;20221;-76
2021/07/30 01:47:38;;;;;;;;;;;;;;;16.30;52.44;100362.09;1578068;89;20217;-76
2021/07/30 01:50:05;;;;;;;;;;;;;;;16.30;52.44;100364.70;1576866;90;20225;-76
2021/07/30 01:52:31;;;;;;;;;;;;;;;16.30;52.41;100364.25;1585576;90;20214;-76
2021/07/30 01:54:57;;;;;;;;;;;;;;;16.29;52.54;100356.03;1581357;90;20204;-76
2021/07/30 01:57:23;;;;;;;;;;;;;;;16.31;52.59;100359.42;1576442;88;20257;-76
2021/07/30 01:59:49;;;;;;;;;;;;;;;16.32;52.68;100355.89;1591756;90;20390;-76
2021/07/30 02:02:15;;;;;;;;;;;;;;;16.33;52.68;100353.67;1587815;88;20211;-76
2021/07/30 02:04:42;;;;;;;;;;;;;;;16.33;52.79;100353.67;1583043;89;20220;-76
2021/07/30 02:07:08;;;;;;;;;;;;;;;16.34;52.80;100348.84;1585727;90;20261;-76
2021/07/30 02:09:34;;;;;;;;;;;;;;;16.33;52.83;100352.37;1587225;90;20853;-76
2021/07/30 02:12:00;;;;;;;;;;;;;;;16.32;52.92;100353.28;1584988;90;20262;-76
2021/07/30 02:14:26;;;;;;;;;;;;;;;16.30;52.96;100347.74;1630000;86;20226;-76
2021/07/30 02:16:54;;;;;;;;;;;;;;;16.26;53.01;100345.72;1632560;86;20293;-76
2021/07/30 02:19:22;;;;;;;;;;;;;;;16.29;53.09;100342.13;1640818;86;20181;-76
2021/07/30 02:21:50;;;;;;;;;;;;;;;16.29;53.13;100344.28;1640721;86;20186;-76
2021/07/30 02:24:16;;;;;;;;;;;;;;;16.28;53.13;100347.81;1626014;86;20217;-76
2021/07/30 02:26:42;;;;;;;;;;;;;;;16.28;53.18;100347.81;1596092;88;20188;-76
2021/07/30 02:29:08;;;;;;;;;;;;;;;16.28;53.23;100350.88;1633372;86;20193;-76
2021/07/30 02:31:35;;;;;;;;;;;;;;;16.26;53.21;100350.94;1651374;86;20279;-76
2021/07/30 02:34:01;;;;;;;;;;;;;;;16.21;53.22;100348.53;1624946;86;20191;-76
2021/07/30 02:36:28;;;;;;;;;;;;;;;16.09;53.25;100354.77;1630231;86;20141;-76
2021/07/30 02:38:54;;;;;;;;;;;;;;;16.05;53.32;100359.27;1628116;86;20142;-76
2021/07/30 02:41:20;;;;;;;;;;;;;;;16.00;53.37;100351.24;1636046;86;20106;-76
2021/07/30 02:43:46;;;;;;;;;;;;;;;15.98;53.44;100354.38;1646043;86;20142;-76
2021/07/30 02:46:16;;;;;;;;;;;;;;;15.97;53.47;100355.28;1638483;86;20140;-76
2021/07/30 02:48:41;;;;;;;;;;;;;;;15.96;53.47;100356.20;1645749;85;20441;-76
2021/07/30 02:51:07;;;;;;;;;;;;;;;15.94;53.50;100356.72;1634344;86;20516;-76
2021/07/30 02:53:33;;;;;;;;;;;;;;;15.93;53.49;100365.45;1644208;86;20168;-76
2021/07/30 02:55:59;;;;;;;;;;;;;;;15.90;53.53;100370.34;1633255;86;20110;-76
2021/07/30 02:58:25;;;;;;;;;;;;;;;15.89;53.64;100369.95;1630520;86;20177;-76
2021/07/30 03:00:55;;;;;;;;;;;;;;;15.88;53.72;100369.09;1650708;86;20137;-76
2021/07/30 03:03:21;;;;;;;;;;;;;;;15.85;53.69;100373.14;1633462;86;20212;-76
2021/07/30 03:05:47;;;;;;;;;;;;;;;15.83;53.73;100369.75;1627168;86;20185;-76
2021/07/30 03:08:14;;;;;;;;;;;;;;;15.83;53.78;100364.98;1639796;86;20184;-76
2021/07/30 03:10:39;;;;;;;;;;;;;;;15.81;53.79;100371.56;1630846;86;20421;-76
2021/07/30 03:13:05;;;;;;;;;;;;;;;15.81;53.82;100375.48;1639517;86;20200;-76
2021/07/30 03:15:31;;;;;;;;;;;;;;;15.83;53.88;100378.02;1627175;86;20183;-76
2021/07/30 03:17:57;;;;;;;;;;;;;;;15.83;53.98;100379.33;1642711;86;20173;-76
2021/07/30 03:20:23;;;;;;;;;;;;;;;15.83;53.96;100380.63;1629514;86;20219;-76
2021/07/30 03:22:49;;;;;;;;;;;;;;;15.82;54.01;100378.94;1619196;86;20146;-76
2021/07/30 03:25:15;;;;;;;;;;;;;;;15.83;54.03;100375.41;1638906;86;22162;-76
2021/07/30 03:27:42;;;;;;;;;;;;;;;15.84;54.01;100379.72;1624053;86;20133;-76
2021/07/30 03:30:11;;;;;;;;;;;;;;;15.83;54.05;100385.39;1612168;87;20123;-76
2021/07/30 03:32:37;;;;;;;;;;;;;;;15.83;54.09;100381.94;1632776;86;20090;-76
2021/07/30 03:35:05;;;;;;;;;;;;;;;15.81;54.13;100382.00;1619252;86;20132;-76
2021/07/30 03:37:31;;;;;;;;;;;;;;;15.81;54.17;100382.45;1629731;86;20162;-76
2021/07/30 03:39:57;;;;;;;;;;;;;;;15.80;54.17;100383.36;1630221;86;20110;-76
2021/07/30 03:42:23;;;;;;;;;;;;;;;15.79;54.23;100379.91;1632872;86;20193;-76
2021/07/30 03:44:49;;;;;;;;;;;;;;;15.80;54.25;100385.52;1634484;86;20172;-76
2021/07/30 03:47:15;;;;;;;;;;;;;;;15.81;54.32;100384.60;1640742;86;20090;-76
2021/07/30 03:49:42;;;;;;;;;;;;;;;15.84;54.34;100384.93;1649572;86;20126;-76
2021/07/30 03:52:08;;;;;;;;;;;;;;;15.85;54.40;100371.83;1632106;86;20150;-76
2021/07/30 03:54:34;;;;;;;;;;;;;;;15.87;54.44;100379.59;1640676;85;20196;-76
2021/07/30 03:57:00;;;;;;;;;;;;;;;15.88;54.45;100382.59;1644609;86;20778;-76
2021/07/30 03:59:28;;;;;;;;;;;;;;;15.90;54.47;100384.68;1627552;86;20102;-76
2021/07/30 04:01:54;;;;;;;;;;;;;;;15.92;54.48;100383.31;1627192;86;20110;-76
2021/07/30 04:04:20;;;;;;;;;;;;;;;15.93;54.46;100381.95;1642432;86;20243;-76
2021/07/30 04:06:47;;;;;;;;;;;;;;;15.93;54.49;100378.48;1647207;86;20113;-76
2021/07/30 04:09:15;;;;;;;;;;;;;;;15.93;54.54;100378.03;1652082;85;20157;-76
2021/07/30 04:11:43;;;;;;;;;;;;;;;15.93;54.61;100375.42;1640000;86;20101;-76
2021/07/30 04:14:09;;;;;;;;;;;;;;;15.95;54.66;100374.06;1635290;86;20112;-76
2021/07/30 04:16:38;;;;;;;;;;;;;;;15.98;54.67;100374.78;1607355;89;20467;-76
2021/07/30 04:19:08;;;;;;;;;;;;;;;16.02;54.73;100377.65;1606902;88;20191;-76
2021/07/30 04:21:35;;;;;;;;;;;;;;;16.08;54.76;100377.39;1606821;88;20626;-76
2021/07/30 04:24:01;;;;;;;;;;;;;;;16.11;54.74;100378.56;1608513;88;20455;-76
2021/07/30 04:26:27;;;;;;;;;;;;;;;16.13;54.74;100381.92;1609189;89;20202;-76
2021/07/30 04:28:53;;;;;;;;;;;;;;;16.15;54.79;100369.66;1608582;87;20542;-76
2021/07/30 04:31:19;;;;;;;;;;;;;;;16.19;54.81;100373.84;1603332;88;20149;-76
2021/07/30 04:33:45;;;;;;;;;;;;;;;16.21;54.78;100377.23;1602327;89;20713;-76
2021/07/30 04:36:15;;;;;;;;;;;;;;;16.23;54.88;100374.09;1599440;88;20165;-76
2021/07/30 04:38:43;;;;;;;;;;;;;;;16.26;54.84;100378.34;1603364;89;20112;-76
2021/07/30 04:41:09;;;;;;;;;;;;;;;16.31;54.98;100376.37;1603430;89;20143;-76
2021/07/30 04:43:49;;;;;;;;;;;;;;;16.35;55.00;100371.42;1607126;87;20100;-76
2021/07/30 04:46:16;;;;;;;;;;;;;;;16.38;55.10;100370.44;1606305;87;20722;-76
2021/07/30 04:48:42;;;;;;;;;;;;;;;16.44;55.20;100373.63;1610872;88;20131;-76
2021/07/30 04:51:08;;;;;;;;;;;;;;;16.50;55.21;100377.73;1610659;87;20362;-76
2021/07/30 04:53:34;;;;;;;;;;;;;;;16.55;55.25;100371.84;1611340;87;20424;-76
2021/07/30 04:56:00;;;;;;;;;;;;;;;16.61;55.25;100368.12;1612638;88;20163;-76
2021/07/30 04:58:26;;;;;;;;;;;;;;;16.67;55.28;100371.77;1607007;89;20667;-76
2021/07/30 05:00:52;;;;;;;;;;;;;;;16.71;55.24;100370.70;1610490;88;20254;-76
2021/07/30 05:03:19;;;;;;;;;;;;;;;16.74;55.30;100371.42;1610451;88;40123;-76
2021/07/30 05:05:45;;;;;;;;;;;;;;;16.82;55.37;100368.46;1603864;88;20965;-76
2021/07/30 05:08:12;;;;;;;;;;;;;;;16.88;55.43;100375.56;1596257;88;20520;-76
2021/07/30 05:10:38;;;;;;;;;;;;;;;17.00;55.38;100377.22;1596199;88;20227;-76
2021/07/30 05:13:04;;;;;;;;;;;;;;;17.11;55.31;100371.89;1602375;89;20926;-76
2021/07/30 05:15:30;;;;;;;;;;;;;;;17.25;55.41;100369.91;1599865;88;20190;-76
2021/07/30 05:17:58;;;;;;;;;;;;;;;17.60;55.71;100368.22;1602090;88;20853;-76
2021/07/30 05:20:26;;;;;;;;;;;;;;;18.17;55.82;100373.63;1603892;88;20092;-76
2021/07/30 05:22:52;;;;;;;;;;;;;;;18.85;55.83;100368.29;1595737;88;20703;-76
2021/07/30 05:25:18;;;;;;;;;;;;;;;19.60;55.41;100362.81;1601488;88;20128;-76
2021/07/30 05:27:44;;;;;;;;;;;;;;;20.10;54.90;100358.53;1604416;88;20104;-76
2021/07/30 05:30:12;;;;;;;;;;;;;;;20.42;54.88;100358.76;1592599;88;20116;-76
2021/07/30 05:32:41;;;;;;;;;;;;;;;20.87;54.72;100359.46;1603196;88;20116;-76
2021/07/30 05:35:08;;;;;;;;;;;;;;;21.37;54.69;100357.56;1600325;88;20169;-76
2021/07/30 05:37:34;;;;;;;;;;;;;;;22.04;54.60;100364.11;1592440;88;20118;-76
2021/07/30 05:40:00;;;;;;;;;;;;;;;22.59;54.04;100358.98;1596729;89;20109;-76
2021/07/30 05:42:26;;;;;;;;;;;;;;;22.95;53.65;100358.19;1597609;88;20850;-76
2021/07/30 05:44:52;;;;;;;;;;;;;;;23.52;53.81;100361.01;1596744;88;20263;-76
2021/07/30 05:47:18;;;;;;;;;;;;;;;24.19;53.47;100358.59;1601246;88;20192;-76
2021/07/30 05:49:47;;;;;;;;;;;;;;;24.74;53.14;100359.11;1600559;88;20998;-76
2021/07/30 05:52:13;;;;;;;;;;;;;;;25.38;53.17;100357.06;1599384;88;20199;-76
2021/07/30 05:54:40;;;;;;;;;;;;;;;25.75;52.74;100358.01;1596521;89;20141;-76
2021/07/30 05:57:08;;;;;;;;;;;;;;;26.25;52.64;100366.48;1598187;89;20125;-76
2021/07/30 05:59:34;;;;;;;;;;;;;;;26.93;52.99;100359.66;1596122;88;20672;-76
2021/07/30 06:02:00;;;;;;;;;;;;;;;27.02;52.46;100355.39;1595607;88;20186;-76
2021/07/30 06:04:28;;;;;;;;;;;;;;;27.29;52.11;100349.40;1600190;89;20108;-76
2021/07/30 06:06:54;;;;;;;;;;;;;;;27.56;51.87;100356.66;1600665;89;20809;-76
2021/07/30 06:09:20;;;;;;;;;;;;;;;27.81;51.89;100354.80;1600078;88;20112;-76
2021/07/30 06:11:46;;;;;;;;;;;;;;;27.85;51.14;100348.70;1584142;89;20738;-76
2021/07/30 06:14:12;;;;;;;;;;;;;;;28.13;51.37;100353.11;1590907;88;20094;-76
2021/07/30 06:16:40;;;;;;;;;;;;;;;28.59;51.63;100356.77;1588295;88;20541;-76
2021/07/30 06:19:06;;;;;;;;;;;;;;;28.68;50.71;100351.38;1591145;88;20762;-77
2021/07/30 06:21:35;;;;;;;;;;;;;;;28.83;50.09;100354.42;1589831;88;20096;-77
2021/07/30 06:24:01;;;;;;;;;;;;;;;28.81;50.57;100352.37;1591129;88;20175;-77
2021/07/30 06:26:27;;;;;;;;;;;;;;;28.65;50.17;100352.17;1592224;89;20096;-77
2021/07/30 06:28:53;;;;;;;;;;;;;;;28.87;50.04;100352.30;1584545;88;20424;-77
2021/07/30 06:31:19;;;;;;;;;;;;;;;29.08;49.47;100352.05;1597605;88;20742;-77
2021/07/30 06:33:45;;;;;;;;;;;;;;;29.18;49.17;100350.96;1587030;88;20285;-77
2021/07/30 06:36:16;;;;;;;;;;;;;;;28.84;48.59;100349.45;1583113;88;20497;-77
2021/07/30 06:38:43;;;;;;;;;;;;;;;28.94;48.73;100344.91;1594179;88;20153;-78
2021/07/30 06:41:10;;;;;;;;;;;;;;;29.06;48.14;100356.19;1597343;88;20136;-77
2021/07/30 06:43:38;;;;;;;;;;;;;;;28.92;47.82;100346.04;1592808;88;20150;-77
2021/07/30 06:46:03;;;;;;;;;;;;;;;29.07;47.63;100344.55;1596790;89;20765;-77
2021/07/30 06:48:29;;;;;;;;;;;;;;;29.04;47.37;100342.68;1592080;88;20230;-77
2021/07/30 06:50:56;;;;;;;;;;;;;;;29.23;47.48;100348.69;1594962;88;20257;-77
2021/07/30 06:53:23;;;;;;;;;;;;;;;29.55;47.05;100341.53;1621647;85;27959;-77
2021/07/30 06:55:49;;;;;;;;;;;;;;;29.65;46.83;100346.75;1619588;86;20144;-77
2021/07/30 06:58:15;;;;;;;;;;;;;;;30.11;46.72;100339.47;1627560;86;20472;-77
2021/07/30 07:00:41;;;;;;;;;;;;;;;30.23;46.19;100338.17;1626173;86;20454;-77
2021/07/30 07:03:07;;;;;;;;;;;;;;;30.19;45.63;100336.81;1629033;86;20768;-77
2021/07/30 07:05:36;;;;;;;;;;;;;;;30.36;45.99;100343.92;1616165;86;20553;-77
2021/07/30 07:08:02;;;;;;;;;;;;;;;30.24;45.34;100339.84;1635415;86;20443;-77
2021/07/30 07:10:28;;;;;;;;;;;;;;;30.45;45.42;100336.80;1625108;86;20778;-77
2021/07/30 07:12:54;;;;;;;;;;;;;;;30.62;45.10;100337.25;1622419;86;20182;-76
2021/07/30 07:15:20;;;;;;;;;;;;;;;30.86;44.71;100331.97;1626241;86;20206;-77
2021/07/30 07:17:46;;;;;;;;;;;;;;;30.98;44.55;100331.17;1610151;86;20534;-77
2021/07/30 07:20:13;;;;;;;;;;;;;;;30.96;44.08;100331.83;1596996;87;20527;-77
2021/07/30 07:22:39;;;;;;;;;;;;;;;30.89;44.40;100327.64;1586049;89;20130;-77
2021/07/30 07:25:05;;;;;;;;;;;;;;;31.04;44.16;100324.34;1595191;89;20453;-76
2021/07/30 07:27:31;;;;;;;;;;;;;;;31.14;43.75;100325.90;1595177;88;20404;-76
2021/07/30 07:29:57;;;;;;;;;;;;;;;31.11;43.50;100329.36;1589865;89;20435;-76
2021/07/30 07:32:23;;;;;;;;;;;;;;;31.04;43.09;100329.19;1592680;89;20241;-76
2021/07/30 07:34:51;;;;;;;;;;;;;;;31.11;43.20;100324.02;1594322;89;20844;-77
2021/07/30 07:37:17;;;;;;;;;;;;;;;31.27;42.84;100320.88;1595697;88;20450;-77
2021/07/30 07:39:47;;;;;;;;;;;;;;;31.16;42.41;100322.56;1597711;89;20429;-77
2021/07/30 07:42:13;;;;;;;;;;;;;;;31.25;42.18;100326.05;1594896;87;20161;-77
2021/07/30 07:44:38;;;;;;;;;;;;;;;31.35;41.81;100312.53;1586248;89;20233;-77
2021/07/30 07:47:06;;;;;;;;;;;;;;;31.24;41.47;100313.70;1592676;89;20104;-77
2021/07/30 07:49:32;;;;;;;;;;;;;;;31.18;41.16;100317.89;1598258;89;20161;-77
2021/07/30 07:51:58;;;;;;;;;;;;;;;31.13;40.81;100310.03;1590254;89;20854;-77
2021/07/30 07:54:31;;;;;;;;;;;;;;;30.92;40.41;100313.12;1602703;89;20555;-77
2021/07/30 07:57:01;;;;;;;;;;;;;;;30.76;40.05;100311.24;1589870;89;20112;-77
2021/07/30 07:59:25;;;;;;;;;;;;;;;30.54;40.39;100305.98;1597934;88;20390;-77
2021/07/30 08:01:52;;;;;;;;;;;;;;;30.27;39.52;100300.36;1595022;89;20475;-77
2021/07/30 08:04:18;;;;;;;;;;;;;;;30.21;39.56;100306.33;1595767;88;20227;-77
2021/07/30 08:06:44;;;;;;;;;;;;;;;30.02;39.21;100302.58;1610101;87;20873;-79
2021/07/30 08:09:10;;;;;;;;;;;;;;;30.18;39.44;100293.80;1607635;88;20533;-77
2021/07/30 08:11:36;;;;;;;;;;;;;;;30.21;39.38;100294.32;1606900;88;20562;-77
2021/07/30 08:14:02;;;;;;;;;;;;;;;30.24;38.51;100281.16;1609353;88;20533;-78
2021/07/30 08:16:28;;;;;;;;;;;;;;;30.13;38.57;100292.14;1611722;87;20535;-78
2021/07/30 08:18:54;;;;;;;;;;;;;;;30.08;38.18;100286.44;1608417;88;20214;-78
2021/07/30 08:21:22;;;;;;;;;;;;;;;30.08;38.31;100275.77;1617815;88;20420;-78
2021/07/30 08:23:48;;;;;;;;;;;;;;;29.96;37.52;100281.84;1602177;88;20764;-78
2021/07/30 08:26:14;;;;;;;;;;;;;;;29.72;37.59;100287.84;1611459;88;20396;-78
2021/07/30 08:28:40;;;;;;;;;;;;;;;29.64;37.64;100287.78;1606903;88;20546;-78
2021/07/30 08:31:06;;;;;;;;;;;;;;;29.61;37.63;100285.45;1619800;88;20165;-78
2021/07/30 08:33:34;;;;;;;;;;;;;;;29.64;37.53;100279.28;1617337;88;20167;-78
2021/07/30 08:36:01;;;;;;;;;;;;;;;29.67;37.02;100287.97;1602402;87;20509;-78
2021/07/30 08:38:27;;;;;;;;;;;;;;;29.52;37.18;100261.06;1617070;88;20112;-78
2021/07/30 08:40:53;;;;;;;;;;;;;;;29.31;36.39;100286.17;1605019;88;20189;-78
2021/07/30 08:43:19;;;;;;;;;;;;;;;29.18;36.73;100284.87;1607419;87;20105;-78
2021/07/30 08:45:49;;;;;;;;;;;;;;;28.93;36.35;100274.02;1609186;87;20481;-78
2021/07/30 08:48:15;;;;;;;;;;;;;;;28.86;36.41;100264.13;1614758;88;20118;-78
2021/07/30 08:50:42;;;;;;;;;;;;;;;28.94;36.28;100269.53;1617343;88;20118;-78
2021/07/30 08:53:09;;;;;;;;;;;;;;;28.73;36.19;100270.27;1618425;88;20104;-78
2021/07/30 08:55:35;;;;;;;;;;;;;;;28.55;36.15;100268.44;1611328;87;20550;-78
2021/07/30 08:58:01;;;;;;;;;;;;;;;28.68;36.12;100274.70;1613580;88;20157;-77
2021/07/30 09:00:27;;;;;;;;;;;;;;;29.05;35.96;100267.14;1610805;87;20257;-77
2021/07/30 09:02:56;;;;;;;;;;;;;;;29.61;35.83;100270.80;1613714;88;20598;-77
2021/07/30 09:05:33;;;;;;;;;;;;;;;30.20;35.85;100282.48;1614894;88;20145;-77
2021/07/30 09:08:02;;;;;;;;;;;;;;;30.50;35.54;100270.44;1607311;88;20120;-77
2021/07/30 09:10:30;;;;;;;;;;;;;;;30.58;35.79;100265.17;1606342;87;20104;-77
2021/07/30 09:13:23;;;;;;;;;;;;;;;30.67;35.69;100248.17;1578309;89;20114;-77
2021/07/30 09:16:03;;;;;;;;;;;;;;;30.89;35.36;100259.55;1592362;89;20106;-77
2021/07/30 09:18:32;;;;;;;;;;;;;;;31.07;35.24;100258.58;1596048;89;20124;-78
2021/07/30 09:21:31;;;;;;;;;;;;;;;30.80;35.31;100259.69;1594882;88;20148;-78
2021/07/30 09:24:09;;;;;;;;;;;;;;;30.52;34.73;100253.77;1594666;89;20147;-78
2021/07/30 09:26:46;;;;;;;;;;;;;;;30.17;35.27;100255.62;1598534;89;20436;-78
2021/07/30 09:29:16;;;;;;;;;;;;;;;29.86;35.10;100246.45;1598425;89;20133;-78
2021/07/30 09:31:45;;;;;;;;;;;;;;;29.35;34.94;100248.58;1597323;88;20118;-78
2021/07/30 09:34:23;;;;;;;;;;;;;;;29.03;34.85;100244.66;1596676;89;20135;-78
2021/07/30 09:36:58;;;;;;;;;;;;;;;28.76;34.29;100243.36;1597090;88;20138;-78
2021/07/30 09:39:35;;;;;;;;;;;;;;;28.38;34.38;100239.12;1596900;89;20100;-78
2021/07/30 09:42:09;;;;;;;;;;;;;;;28.04;34.23;100235.70;1591133;89;20105;-78
2021/07/30 09:44:50;;;;;;;;;;;;;;;27.67;34.01;100225.04;1598745;88;20114;-78
2021/07/30 09:47:22;;;;;;;;;;;;;;;27.48;34.29;100220.60;1605159;89;20118;-78
2021/07/30 09:49:59;;;;;;;;;;;;;;;27.38;34.08;100225.58;1598991;88;20122;-78
2021/07/30 09:52:29;;;;;;;;;;;;;;;27.23;34.20;100222.02;1594523;89;20130;-78
2021/07/30 09:54:58;;;;;;;;;;;;;;;27.12;34.08;100223.50;1595069;89;20192;-78
2021/07/30 09:57:29;;;;;;;;;;;;;;;27.03;33.98;100223.84;1601337;89;20468;-77
2021/07/30 10:00:01;;;;;;;;;;;;;;;26.98;33.96;100216.82;1599901;88;20112;-77
2021/07/30 10:02:33;;;;;;;;;;;;;;;26.92;33.91;100223.14;1597612;87;20100;-77
2021/07/30 10:05:14;;;;;;;;;;;;;;;26.84;33.86;100217.20;1599172;88;20100;-77
2021/07/30 10:07:43;;;;;;;;;;;;;;;26.73;33.78;100205.88;1604596;88;20103;-77
2021/07/30 10:10:18;;;;;;;;;;;;;;;26.62;33.86;100214.79;1588850;87;20439;-77
2021/07/30 10:12:53;;;;;;;;;;;;;;;26.53;33.83;100201.86;1585450;90;20094;-77
2021/07/30 10:15:16;;;;;;;;;;;;;;;26.45;33.77;100207.03;1582546;90;20279;-77
2021/07/30 10:17:52;;;;;;;;;;;;;;;26.28;33.72;100210.30;1559540;90;20127;-77
2021/07/30 10:20:20;;;;;;;;;;;;;;;26.16;33.73;100211.38;1577136;90;20135;-77
2021/07/30 10:22:56;;;;;;;;;;;;;;;26.00;33.80;100199.46;1584015;90;20138;-77
2021/07/30 10:25:27;;;;;;;;;;;;;;;25.89;33.87;100207.53;1575520;90;20132;-77
2021/07/30 10:28:07;;;;;;;;;;;;;;;25.83;33.83;100197.95;1588536;90;20131;-77
2021/07/30 10:30:58;;;;;;;;;;;;;;;25.72;33.94;100208.97;1582299;89;20108;-77
2021/07/30 10:33:34;;;;;;;;;;;;;;;25.67;33.91;100199.74;1578312;90;20103;-78
2021/07/30 10:36:09;;;;;;;;;;;;;;;25.65;33.99;100186.63;1582686;88;20105;-78
2021/07/30 10:38:35;;;;;;;;;;;;;;;25.65;33.95;100181.82;1587334;90;20138;-78
2021/07/30 10:41:08;;;;;;;;;;;;;;;25.68;34.02;100173.13;1575038;90;20109;-78
2021/07/30 10:44:00;;;;;;;;;;;;;;;25.78;34.07;100156.45;1521192;89;5000732;-77
2021/07/30 10:46:26;;;;;;;;;;;;;;;25.77;33.95;100186.55;1596514;89;20167;-77
2021/07/30 10:48:54;;;;;;;;;;;;;;;25.76;34.02;100180.91;1587154;89;20159;-77
2021/07/30 10:51:24;;;;;;;;;;;;;;;25.81;34.06;100182.19;1597210;89;20167;-77
2021/07/30 10:53:54;;;;;;;;;;;;;;;25.84;34.06;100195.16;1593557;89;20159;-77
2021/07/30 10:56:26;;;;;;;;;;;;;;;25.77;34.01;100174.14;1590074;89;20288;-77
2021/07/30 10:59:03;;;;;;;;;;;;;;;25.68;34.13;100172.29;1596046;89;20217;-78
2021/07/30 11:01:33;;;;;;;;;;;;;;;25.74;34.25;100178.38;1595222;88;20186;-78
2021/07/30 11:04:06;;;;;;;;;;;;;;;25.85;34.35;100184.92;1592885;89;20127;-78
2021/07/30 11:06:41;;;;;;;;;;;;;;;25.97;34.33;100175.08;1590954;88;20144;-78
2021/07/30 11:09:12;;;;;;;;;;;;;;;26.03;34.26;100171.37;1574067;88;20145;-78
2021/07/30 11:11:43;;;;;;;;;;;;;;;26.09;34.27;100163.38;1541411;90;20495;-78
2021/07/30 11:14:15;;;;;;;;;;;;;;;26.19;34.41;100155.45;1540580;91;20202;-78
2021/07/30 11:16:50;;;;;;;;;;;;;;;26.26;34.38;100163.21;1539955;92;20290;-78
2021/07/30 11:19:20;;;;;;;;;;;;;;;26.19;34.22;100164.23;1521346;92;20175;-78
2021/07/30 11:21:46;;;;;;;;;;;;;;;26.03;34.22;100159.45;1538271;92;20180;-78
2021/07/30 11:24:12;;;;;;;;;;;;;;;25.95;34.38;100148.71;1549413;92;20097;-78
2021/07/30 11:26:40;;;;;;;;;;;;;;;25.91;34.39;100166.33;1536692;91;20162;-78
2021/07/30 11:29:08;;;;;;;;;;;;;;;25.84;34.42;100163.86;1536719;92;20180;-78
2021/07/30 11:31:38;;;;;;;;;;;;;;;25.87;34.51;100160.46;1540876;92;20099;-78
2021/07/30 11:34:11;;;;;;;;;;;;;;;25.87;34.38;100143.23;1545828;92;20157;-78
2021/07/30 11:36:43;;;;;;;;;;;;;;;25.77;34.47;100156.09;1546122;91;20156;-78
2021/07/30 11:39:09;;;;;;;;;;;;;;;25.73;34.52;100159.00;1562004;89;20114;-78
2021/07/30 11:41:39;;;;;;;;;;;;;;;25.73;34.45;100155.52;1578833;89;20204;-79
2021/07/30 11:44:08;;;;;;;;;;;;;;;25.70;34.44;100161.08;1579115;89;20118;-79
2021/07/30 11:46:35;;;;;;;;;;;;;;;25.68;34.36;100153.75;1571837;89;20125;-78
2021/07/30 11:49:10;;;;;;;;;;;;;;;25.71;34.35;100136.27;1575423;89;20106;-78
2021/07/30 11:51:40;;;;;;;;;;;;;;;25.74;34.43;100145.28;1580622;89;20424;-78
2021/07/30 11:54:06;;;;;;;;;;;;;;;25.78;34.57;100147.17;1573167;89;20123;-78
2021/07/30 11:56:44;;;;;;;;;;;;;;;25.83;34.57;100149.78;1572356;89;20116;-78
2021/07/30 11:59:10;;;;;;;;;;;;;;;25.91;34.64;100139.84;1570849;88;20129;-78
2021/07/30 12:01:36;;;;;;;;;;;;;;;26.02;34.62;100136.57;1577039;89;20151;-78
2021/07/30 12:04:12;;;;;;;;;;;;;;;26.10;34.66;100137.22;1577939;89;20177;-78
2021/07/30 12:06:49;;;;;;;;;;;;;;;26.18;34.70;100137.38;1576455;88;20436;-78
2021/07/30 12:09:23;;;;;;;;;;;;;;;26.25;34.72;100135.87;1577161;89;20172;-79
2021/07/30 12:11:51;;;;;;;;;;;;;;;26.26;34.55;100136.70;1571674;89;20145;-79
2021/07/30 12:14:18;;;;;;;;;;;;;;;26.20;34.65;100134.59;1589099;87;20827;-78
2021/07/30 12:16:46;;;;;;;;;;;;;;;26.13;34.66;100135.63;1591885;89;20114;-78
2021/07/30 12:19:12;;;;;;;;;;;;;;;26.06;34.75;100125.22;1599862;89;20102;-79
2021/07/30 12:21:59;;;;;;;;;;;;;;;26.03;34.74;100125.48;1596295;88;20107;-78
2021/07/30 12:24:49;;;;;;;;;;;;;;;26.00;34.72;100122.62;1598845;89;20096;-78
2021/07/30 12:27:19;;;;;;;;;;;;;;;26.01;34.80;100128.75;1603894;88;20429;-79
2021/07/30 12:29:54;;;;;;;;;;;;;;;25.93;34.71;100120.19;1595808;87;20136;-79
2021/07/30 12:32:25;;;;;;;;;;;;;;;25.90;34.87;100118.30;1599594;87;20218;-79
2021/07/30 12:35:03;;;;;;;;;;;;;;;25.89;34.74;100113.97;1592425;89;20139;-79
2021/07/30 12:37:30;;;;;;;;;;;;;;;25.83;34.78;100114.02;1590402;89;20127;-79
2021/07/30 12:39:58;;;;;;;;;;;;;;;25.80;34.85;100106.83;1587751;89;20144;-79